createdAt,value
2023-01-12T00:01:10.703Z,-4.72
2023-01-12T00:03:39.607Z,-4.73
2023-01-12T00:06:09.495Z,-4.75
2023-01-12T00:08:38.586Z,-4.73
2023-01-12T00:11:11.480Z,-4.78
2023-01-12T00:13:39.838Z,-4.71
2023-01-12T00:16:35.987Z,-4.67
2023-01-12T00:19:19.935Z,-4.66
2023-01-12T00:22:09.724Z,-4.68
2023-01-12T00:24:44.314Z,-4.67
2023-01-12T00:27:15.349Z,-4.66
2023-01-12T00:29:43.905Z,-4.68
2023-01-12T00:32:14.847Z,-4.70
2023-01-12T00:34:43.621Z,-4.73
2023-01-12T00:37:12.984Z,-4.75
2023-01-12T00:39:45.893Z,-4.78
2023-01-12T00:42:36.002Z,-4.80
2023-01-12T00:45:23.370Z,-4.79
2023-01-12T00:47:53.795Z,-4.80
2023-01-12T00:50:23.017Z,-4.80
2023-01-12T00:52:51.521Z,-4.80
2023-01-12T00:55:20.899Z,-4.79
2023-01-12T00:57:49.179Z,-4.81
2023-01-12T01:00:18.319Z,-4.80
2023-01-12T01:02:46.760Z,-4.79
2023-01-12T01:05:15.576Z,-4.81
2023-01-12T01:07:44.097Z,-4.78
2023-01-12T01:10:12.700Z,-4.77
2023-01-12T01:12:42.099Z,-4.76
2023-01-12T01:15:10.869Z,-4.76
2023-01-12T01:17:39.159Z,-4.76
2023-01-12T01:20:07.928Z,-4.75
2023-01-12T01:22:39.384Z,-4.76
2023-01-12T01:25:13.618Z,-4.76
2023-01-12T01:27:42.224Z,-4.77
2023-01-12T01:30:11.442Z,-4.77
2023-01-12T01:32:40.620Z,-4.76
2023-01-12T01:35:09.593Z,-4.75
2023-01-12T01:37:38.022Z,-4.76
2023-01-12T01:40:07.267Z,-4.78
2023-01-12T01:42:35.727Z,-4.79
2023-01-12T01:45:06.294Z,-4.80
2023-01-12T01:47:41.381Z,-4.80
2023-01-12T01:50:18.830Z,-4.80
2023-01-12T01:52:53.581Z,-4.80
2023-01-12T01:56:04.915Z,-4.80
2023-01-12T01:58:37.253Z,-4.79
2023-01-12T02:02:02.425Z,-4.81
2023-01-12T02:04:31.660Z,-4.84
2023-01-12T02:07:19.927Z,-4.83
2023-01-12T02:09:48.298Z,-4.79
2023-01-12T02:12:35.494Z,-4.79
2023-01-12T02:15:22.893Z,-4.81
2023-01-12T02:18:19.548Z,-4.82
2023-01-12T02:20:59.459Z,-4.84
2023-01-12T02:24:00.120Z,-4.86
2023-01-12T02:26:50.963Z,-4.87
2023-01-12T02:29:34.433Z,-4.87
2023-01-12T02:32:51.442Z,-4.88
2023-01-12T02:35:55.258Z,-4.88
2023-01-12T02:38:23.573Z,-4.87
2023-01-12T02:41:03.873Z,-4.85
2023-01-12T02:43:35.508Z,-4.83
2023-01-12T02:46:26.002Z,-4.86
2023-01-12T02:49:11.405Z,-4.88
2023-01-12T02:52:14.591Z,-4.90
2023-01-12T02:54:48.277Z,-4.90
2023-01-12T02:57:17.231Z,-4.91
2023-01-12T02:59:46.856Z,-4.93
2023-01-12T03:02:21.879Z,-4.94
2023-01-12T03:05:51.049Z,-4.93
2023-01-12T03:08:45.694Z,-4.92
2023-01-12T03:11:37.440Z,-4.90
2023-01-12T03:14:08.646Z,-4.88
2023-01-12T03:16:57.843Z,-4.85
2023-01-12T03:19:31.347Z,-4.82
2023-01-12T03:22:03.194Z,-4.80
2023-01-12T03:24:50.705Z,-4.78
2023-01-12T03:27:30.321Z,-4.77
2023-01-12T03:30:27.882Z,-4.74
2023-01-12T03:32:57.109Z,-4.71
2023-01-12T03:35:52.173Z,-4.69
2023-01-12T03:39:19.362Z,-4.66
2023-01-12T03:42:03.327Z,-4.65
2023-01-12T03:44:45.261Z,-4.66
2023-01-12T03:47:21.043Z,-4.64
2023-01-12T03:50:12.495Z,-4.64
2023-01-12T03:52:43.807Z,-4.63
2023-01-12T03:55:17.097Z,-4.63
2023-01-12T03:57:47.106Z,-4.62
2023-01-12T04:00:19.669Z,-4.63
2023-01-12T04:02:48.146Z,-4.63
2023-01-12T04:05:17.241Z,-4.65
2023-01-12T04:08:20.434Z,-4.65
2023-01-12T04:10:49.032Z,-4.66
2023-01-12T04:13:17.993Z,-4.65
2023-01-12T04:16:06.471Z,-4.65
2023-01-12T04:18:34.768Z,-4.66
2023-01-12T04:21:04.054Z,-4.66
2023-01-12T04:23:33.339Z,-4.68
2023-01-12T04:26:02.812Z,-4.69
2023-01-12T04:28:52.781Z,-4.71
2023-01-12T04:31:23.493Z,-4.71
2023-01-12T04:33:52.042Z,-4.69
2023-01-12T04:36:21.608Z,-4.70
2023-01-12T04:39:07.108Z,-4.74
2023-01-12T04:42:36.212Z,-4.68
2023-01-12T04:45:05.237Z,-4.67
2023-01-12T04:47:35.116Z,-4.64
2023-01-12T04:50:04.287Z,-4.62
2023-01-12T04:52:33.624Z,-4.61
2023-01-12T04:55:02.162Z,-4.60
2023-01-12T04:57:31.036Z,-4.59
2023-01-12T05:00:19.523Z,-4.58
2023-01-12T05:02:47.998Z,-4.58
2023-01-12T05:05:16.953Z,-4.57
2023-01-12T05:08:04.431Z,-4.58
2023-01-12T05:10:45.785Z,-4.57
2023-01-12T05:13:15.378Z,-4.55
2023-01-12T05:15:46.058Z,-4.55
2023-01-12T05:18:14.582Z,-4.55
2023-01-12T05:20:43.995Z,-4.53
2023-01-12T05:23:17.175Z,-4.52
2023-01-12T05:26:08.841Z,-4.51
2023-01-12T05:28:37.277Z,-4.51
2023-01-12T05:31:13.718Z,-4.49
2023-01-12T05:33:43.426Z,-4.48
2023-01-12T05:36:15.174Z,-4.48
2023-01-12T05:38:43.838Z,-4.46
2023-01-12T05:41:14.830Z,-4.44
2023-01-12T05:43:53.278Z,-4.41
2023-01-12T05:46:23.972Z,-4.39
2023-01-12T05:48:54.144Z,-4.36
2023-01-12T05:51:23.998Z,-4.36
2023-01-12T05:53:53.545Z,-4.34
2023-01-12T05:56:26.094Z,-4.33
2023-01-12T05:58:58.906Z,-4.32
2023-01-12T06:01:29.595Z,-4.32
2023-01-12T06:04:00.384Z,-4.30
2023-01-12T06:06:31.687Z,-4.26
2023-01-12T06:09:01.507Z,-4.24
2023-01-12T06:11:49.109Z,-4.21
2023-01-12T06:14:17.794Z,-4.21
2023-01-12T06:16:46.377Z,-4.20
2023-01-12T06:19:14.843Z,-4.18
2023-01-12T06:21:43.358Z,-4.16
2023-01-12T06:24:11.755Z,-4.16
2023-01-12T06:26:40.445Z,-4.14
2023-01-12T06:29:09.142Z,-4.12
2023-01-12T06:31:39.227Z,-4.11
2023-01-12T06:34:10.466Z,-4.10
2023-01-12T06:36:39.759Z,-4.11
2023-01-12T06:39:09.634Z,-4.11
2023-01-12T06:41:56.765Z,-4.08
2023-01-12T06:44:25.942Z,-4.05
2023-01-12T06:46:54.564Z,-4.05
2023-01-12T06:49:23.268Z,-4.07
2023-01-12T06:51:53.563Z,-4.06
2023-01-12T06:54:23.196Z,-4.07
2023-01-12T06:56:51.603Z,-4.07
2023-01-12T06:59:20.103Z,-4.04
2023-01-12T07:01:48.683Z,-4.02
2023-01-12T07:04:17.207Z,-4.02
2023-01-12T07:06:45.869Z,-4.00
2023-01-12T07:09:14.376Z,-4.01
2023-01-12T07:11:42.999Z,-4.01
2023-01-12T07:14:11.327Z,-4.00
2023-01-12T07:16:40.535Z,-4.01
2023-01-12T07:19:09.948Z,-4.01
2023-01-12T07:21:38.364Z,-3.99
2023-01-12T07:24:07.577Z,-3.97
2023-01-12T07:26:36.429Z,-3.99
2023-01-12T07:29:04.871Z,-3.99
2023-01-12T07:32:12.505Z,-3.99
2023-01-12T07:34:42.087Z,-4.00
2023-01-12T07:37:10.562Z,-3.96
2023-01-12T07:39:40.879Z,-3.91
2023-01-12T07:42:23.727Z,-3.91
2023-01-12T07:45:00.922Z,-3.79
2023-01-12T07:47:30.667Z,-3.75
2023-01-12T07:49:59.739Z,-3.74
2023-01-12T07:52:28.157Z,-3.73
2023-01-12T07:54:58.168Z,-3.76
2023-01-12T07:57:27.855Z,-3.78
2023-01-12T07:59:56.165Z,-3.80
2023-01-12T08:02:24.741Z,-3.88
2023-01-12T08:04:55.076Z,-3.81
2023-01-12T08:07:24.305Z,-3.79
2023-01-12T08:09:52.978Z,-3.72
2023-01-12T08:12:21.804Z,-3.68
2023-01-12T08:14:50.392Z,-3.69
2023-01-12T08:17:45.859Z,-3.69
2023-01-12T08:20:19.064Z,-3.68
2023-01-12T08:22:52.098Z,-3.63
2023-01-12T08:25:27.241Z,-3.57
2023-01-12T08:28:01.301Z,-3.56
2023-01-12T08:30:30.371Z,-3.59
2023-01-12T08:33:20.976Z,-3.59
2023-01-12T08:35:49.818Z,-3.54
2023-01-12T08:38:19.552Z,-3.51
2023-01-12T08:41:09.956Z,-3.52
2023-01-12T08:43:57.224Z,-3.49
2023-01-12T08:46:25.552Z,-3.48
2023-01-12T08:48:54.798Z,-3.48
2023-01-12T08:51:30.866Z,-3.45
2023-01-12T08:54:00.565Z,-3.41
2023-01-12T08:56:29.581Z,-3.35
2023-01-12T08:58:58.592Z,-3.30
2023-01-12T09:01:27.895Z,-3.27
2023-01-12T09:03:57.989Z,-3.23
2023-01-12T09:06:31.006Z,-3.24
2023-01-12T09:09:02.916Z,-3.26
2023-01-12T09:11:32.755Z,-3.23
2023-01-12T09:14:02.114Z,-3.18
2023-01-12T09:16:33.287Z,-3.15
2023-01-12T09:19:03.144Z,-3.11
2023-01-12T09:21:33.518Z,-3.10
2023-01-12T09:24:01.805Z,-3.06
2023-01-12T09:26:32.709Z,-3.00
2023-01-12T09:29:02.612Z,-2.92
2023-01-12T09:31:33.096Z,-2.87
2023-01-12T09:34:01.867Z,-2.87
2023-01-12T09:36:32.967Z,-2.87
2023-01-12T09:39:02.693Z,-2.88
2023-01-12T09:42:13.970Z,-2.85
2023-01-12T09:45:45.804Z,-2.86
2023-01-12T09:48:14.709Z,-2.86
2023-01-12T09:51:09.909Z,-2.79
2023-01-12T09:53:41.227Z,-2.68
2023-01-12T09:56:29.865Z,-2.57
2023-01-12T09:59:22.828Z,-2.47
2023-01-12T10:01:53.578Z,-2.42
2023-01-12T10:04:21.987Z,-2.44
2023-01-12T10:06:50.439Z,-2.42
2023-01-12T10:09:21.890Z,-2.39
2023-01-12T10:12:19.411Z,-2.35
2023-01-12T10:14:53.861Z,-2.32
2023-01-12T10:17:50.813Z,-2.39
2023-01-12T10:20:34.128Z,-2.45
2023-01-12T10:23:10.070Z,-2.47
2023-01-12T10:25:43.528Z,-2.55
2023-01-12T10:28:24.429Z,-2.56
2023-01-12T10:30:56.446Z,-2.55
2023-01-12T10:33:30.488Z,-2.56
2023-01-12T10:36:09.979Z,-2.56
2023-01-12T10:38:56.838Z,-2.51
2023-01-12T10:41:29.809Z,-2.49
2023-01-12T10:44:01.173Z,-2.50
2023-01-12T10:46:34.494Z,-2.51
2023-01-12T10:49:23.934Z,-2.51
2023-01-12T10:51:59.582Z,-2.51
2023-01-12T10:54:34.692Z,-2.50
2023-01-12T10:57:24.438Z,-2.50
2023-01-12T11:00:02.891Z,-2.51
2023-01-12T11:02:44.706Z,-2.50
2023-01-12T11:05:37.024Z,-2.42
2023-01-12T11:08:26.676Z,-2.39
2023-01-12T11:10:57.116Z,-2.27
2023-01-12T11:13:37.053Z,-2.23
2023-01-12T11:16:39.308Z,-2.09
2023-01-12T11:19:33.004Z,-2.06
2023-01-12T11:22:22.164Z,-2.06
2023-01-12T11:25:32.255Z,-2.01
2023-01-12T11:28:33.798Z,-1.97
2023-01-12T11:31:08.397Z,-2.00
2023-01-12T11:34:00.956Z,-2.01
2023-01-12T11:36:37.359Z,-1.96
2023-01-12T11:39:31.700Z,-1.90
2023-01-12T11:42:21.520Z,-1.86
2023-01-12T11:45:15.358Z,-1.87
2023-01-12T11:47:51.853Z,-1.88
2023-01-12T11:50:33.786Z,-1.85
2023-01-12T11:53:05.431Z,-1.81
2023-01-12T11:55:56.892Z,-1.83
2023-01-12T11:58:43.452Z,-1.86
2023-01-12T12:01:34.239Z,-1.85
2023-01-12T12:04:26.140Z,-1.87
2023-01-12T12:07:09.377Z,-1.86
2023-01-12T12:09:53.447Z,-1.82
2023-01-12T12:12:48.207Z,-1.87
2023-01-12T12:15:28.560Z,-1.86
2023-01-12T12:18:17.138Z,-1.85
2023-01-12T12:21:06.062Z,-1.82
2023-01-12T12:23:59.725Z,-1.85
2023-01-12T12:26:36.923Z,-1.84
2023-01-12T12:29:16.193Z,-1.84
2023-01-12T12:32:18.858Z,-1.83
2023-01-12T12:34:47.357Z,-1.82
2023-01-12T12:37:57.157Z,-1.79
2023-01-12T12:41:20.121Z,-1.76
2023-01-12T12:44:37.718Z,-1.73
2023-01-12T12:47:24.113Z,-1.70
2023-01-12T12:49:56.719Z,-1.76
2023-01-12T12:52:29.832Z,-1.71
2023-01-12T12:54:59.574Z,-1.71
2023-01-12T12:57:27.927Z,-1.69
2023-01-12T13:00:00.188Z,-1.69
2023-01-12T13:02:33.889Z,-1.68
2023-01-12T13:05:05.319Z,-1.70
2023-01-12T13:07:37.980Z,-1.71
2023-01-12T13:10:31.527Z,-1.70
2023-01-12T13:13:04.541Z,-1.63
2023-01-12T13:15:37.358Z,-1.63
2023-01-12T13:18:06.487Z,-1.62
2023-01-12T13:20:56.804Z,-1.60
2023-01-12T13:23:46.203Z,-1.59
2023-01-12T13:26:35.884Z,-1.58
2023-01-12T13:29:24.812Z,-1.61
2023-01-12T13:32:27.987Z,-1.61
2023-01-12T13:34:56.431Z,-1.62
2023-01-12T13:37:34.428Z,-1.60
2023-01-12T13:40:28.714Z,-1.59
2023-01-12T13:43:16.227Z,-1.63
2023-01-12T13:46:10.767Z,-1.66
2023-01-12T13:48:46.140Z,-1.68
2023-01-12T13:51:21.159Z,-1.69
2023-01-12T13:54:07.266Z,-1.77
2023-01-12T13:56:35.694Z,-1.72
2023-01-12T13:59:08.082Z,-1.74
2023-01-12T14:01:39.677Z,-1.73
2023-01-12T14:04:14.027Z,-1.72
2023-01-12T14:06:54.502Z,-1.73
2023-01-12T14:09:27.724Z,-1.75
2023-01-12T14:12:34.817Z,-1.76
2023-01-12T14:15:41.491Z,-1.77
2023-01-12T14:18:13.776Z,-1.76
2023-01-12T14:20:52.184Z,-1.76
2023-01-12T14:23:25.009Z,-1.76
2023-01-12T14:26:14.702Z,-1.78
2023-01-12T14:28:52.564Z,-1.78
2023-01-12T14:31:31.908Z,-1.78
2023-01-12T14:34:04.688Z,-1.80
2023-01-12T14:36:45.738Z,-1.80
2023-01-12T14:39:22.155Z,-1.81
2023-01-12T14:42:11.949Z,-1.90
2023-01-12T14:45:13.567Z,-1.82
2023-01-12T14:47:42.195Z,-1.84
2023-01-12T14:50:13.584Z,-1.84
2023-01-12T14:52:46.987Z,-1.84
2023-01-12T14:55:16.381Z,-1.84
2023-01-12T14:57:52.367Z,-1.84
2023-01-12T15:00:27.938Z,-1.89
2023-01-12T15:03:02.068Z,-1.85
2023-01-12T15:05:34.297Z,-1.89
2023-01-12T15:08:19.894Z,-1.90
2023-01-12T15:11:01.067Z,-1.92
2023-01-12T15:13:34.686Z,-1.94
2023-01-12T15:16:23.676Z,-1.95
2023-01-12T15:19:12.443Z,-1.95
2023-01-12T15:22:05.354Z,-1.94
2023-01-12T15:24:54.584Z,-1.90
2023-01-12T15:27:24.028Z,-1.88
2023-01-12T15:29:52.517Z,-1.85
2023-01-12T15:32:46.329Z,-1.83
2023-01-12T15:35:25.994Z,-1.82
2023-01-12T15:37:56.567Z,-1.83
2023-01-12T15:40:26.736Z,-1.82
2023-01-12T15:42:55.417Z,-1.83
2023-01-12T15:45:32.922Z,-1.78
2023-01-12T15:48:02.777Z,-1.77
2023-01-12T15:50:32.351Z,-1.77
2023-01-12T15:53:01.935Z,-1.77
2023-01-12T15:55:36.361Z,-1.78
2023-01-12T15:58:04.792Z,-1.78
2023-01-12T16:00:34.237Z,-1.76
2023-01-12T16:03:05.009Z,-1.76
2023-01-12T16:05:33.332Z,-1.77
2023-01-12T16:08:01.580Z,-1.78
2023-01-12T16:10:30.636Z,-1.78
2023-01-12T16:13:07.584Z,-1.79
2023-01-12T16:15:36.005Z,-1.78
2023-01-12T16:18:04.418Z,-1.77
2023-01-12T16:20:32.636Z,-1.75
2023-01-12T16:23:00.870Z,-1.72
2023-01-12T16:25:29.129Z,-1.71
2023-01-12T16:27:57.597Z,-1.72
2023-01-12T16:30:25.977Z,-1.71
2023-01-12T16:32:57.668Z,-1.70
2023-01-12T16:35:26.130Z,-1.71
2023-01-12T16:38:14.464Z,-1.69
2023-01-12T16:40:45.404Z,-1.67
2023-01-12T16:43:13.915Z,-1.67
2023-01-12T16:45:42.787Z,-1.72
2023-01-12T16:48:11.112Z,-1.71
2023-01-12T16:50:41.328Z,-1.70
2023-01-12T16:53:11.654Z,-1.69
2023-01-12T16:55:45.137Z,-1.68
2023-01-12T16:58:15.339Z,-1.67
2023-01-12T17:00:43.695Z,-1.63
2023-01-12T17:03:14.566Z,-1.60
2023-01-12T17:05:43.293Z,-1.59
2023-01-12T17:08:11.557Z,-1.59
2023-01-12T17:10:40.244Z,-1.58
2023-01-12T17:13:08.506Z,-1.57
2023-01-12T17:15:37.448Z,-1.55
2023-01-12T17:18:06.276Z,-1.54
2023-01-12T17:20:35.048Z,-1.54
2023-01-12T17:23:03.727Z,-1.54
2023-01-12T17:25:33.578Z,-1.54
2023-01-12T17:28:02.025Z,-1.54
2023-01-12T17:30:31.790Z,-1.53
2023-01-12T17:33:00.044Z,-1.52
2023-01-12T17:35:28.339Z,-1.52
2023-01-12T17:37:56.613Z,-1.51
2023-01-12T17:40:27.486Z,-1.53
2023-01-12T17:43:07.816Z,-1.52
2023-01-12T17:45:43.820Z,-1.51
2023-01-12T17:48:13.249Z,-1.52
2023-01-12T17:50:41.868Z,-1.52
2023-01-12T17:53:17.567Z,-1.53
2023-01-12T17:55:48.746Z,-1.55
2023-01-12T17:58:18.830Z,-1.57
2023-01-12T18:00:47.422Z,-1.60
2023-01-12T18:03:16.036Z,-1.61
2023-01-12T18:05:47.075Z,-1.59
2023-01-12T18:08:16.185Z,-1.59
2023-01-12T18:10:45.460Z,-1.62
2023-01-12T18:13:14.426Z,-1.63
2023-01-12T18:15:43.384Z,-1.64
2023-01-12T18:18:11.825Z,-1.64
2023-01-12T18:20:40.163Z,-1.66
2023-01-12T18:23:08.485Z,-1.66
2023-01-12T18:25:37.251Z,-1.66
2023-01-12T18:28:06.185Z,-1.65
2023-01-12T18:30:35.161Z,-1.68
2023-01-12T18:33:10.331Z,-1.69
2023-01-12T18:35:39.241Z,-1.70
2023-01-12T18:38:08.183Z,-1.71
2023-01-12T18:40:36.524Z,-1.71
2023-01-12T18:43:04.767Z,-1.69
2023-01-12T18:45:33.565Z,-1.66
2023-01-12T18:48:20.405Z,-1.65
2023-01-12T18:51:11.699Z,-1.66
2023-01-12T18:53:41.139Z,-1.66
2023-01-12T18:56:10.268Z,-1.65
2023-01-12T18:58:40.208Z,-1.65
2023-01-12T19:01:13.798Z,-1.79
2023-01-12T19:03:42.218Z,-1.65
2023-01-12T19:06:28.944Z,-1.65
2023-01-12T19:09:15.865Z,-1.63
2023-01-12T19:11:44.853Z,-1.61
2023-01-12T19:14:31.820Z,-1.62
2023-01-12T19:17:19.070Z,-1.64
2023-01-12T19:19:47.406Z,-1.63
2023-01-12T19:22:34.478Z,-1.65
2023-01-12T19:25:21.881Z,-1.68
2023-01-12T19:28:08.824Z,-1.68
2023-01-12T19:30:38.381Z,-1.64
2023-01-12T19:33:09.030Z,-1.64
2023-01-12T19:35:38.004Z,-1.66
2023-01-12T19:38:06.436Z,-1.65
2023-01-12T19:40:44.575Z,-1.65
2023-01-12T19:43:20.589Z,-1.65
2023-01-12T19:45:59.115Z,-1.65
2023-01-12T19:48:27.945Z,-1.66
2023-01-12T19:50:56.355Z,-1.65
2023-01-12T19:53:28.811Z,-1.65
2023-01-12T19:55:57.150Z,-1.64
2023-01-12T19:58:27.525Z,-1.63
2023-01-12T20:01:00.902Z,-1.61
2023-01-12T20:03:29.252Z,-1.61
2023-01-12T20:05:57.914Z,-1.63
2023-01-12T20:08:26.477Z,-1.65
2023-01-12T20:10:59.744Z,-1.65
2023-01-12T20:13:28.213Z,-1.67
2023-01-12T20:15:57.821Z,-1.68
2023-01-12T20:18:35.967Z,-1.69
2023-01-12T20:21:12.050Z,-1.74
2023-01-12T20:23:46.301Z,-1.75
2023-01-12T20:26:15.858Z,-1.83
2023-01-12T20:28:45.203Z,-1.77
2023-01-12T20:31:16.113Z,-1.78
2023-01-12T20:33:44.623Z,-1.74
2023-01-12T20:36:15.563Z,-1.93
2023-01-12T20:38:46.087Z,-1.74
2023-01-12T20:41:15.201Z,-1.75
2023-01-12T20:43:45.985Z,-1.77
2023-01-12T20:46:17.322Z,-1.79
2023-01-12T20:48:45.695Z,-1.80
2023-01-12T20:51:32.608Z,-1.80
2023-01-12T20:54:03.352Z,-1.80
2023-01-12T20:56:37.446Z,-1.80
2023-01-12T20:59:06.767Z,-1.81
2023-01-12T21:01:35.213Z,-1.84
2023-01-12T21:04:03.895Z,-1.86
2023-01-12T21:06:32.343Z,-1.83
2023-01-12T21:09:00.816Z,-1.82
2023-01-12T21:11:29.712Z,-1.83
2023-01-12T21:13:59.095Z,-1.84
2023-01-12T21:16:31.603Z,-1.85
2023-01-12T21:19:04.077Z,-1.85
2023-01-12T21:21:50.153Z,-1.85
2023-01-12T21:24:18.480Z,-1.87
2023-01-12T21:26:48.713Z,-1.86
2023-01-12T21:29:17.918Z,-1.86
2023-01-12T21:31:47.777Z,-1.87
2023-01-12T21:34:16.259Z,-1.87
2023-01-12T21:36:46.417Z,-1.88
2023-01-12T21:39:16.156Z,-1.90
2023-01-12T21:42:03.045Z,-1.92
2023-01-12T21:44:31.684Z,-1.94
2023-01-12T21:47:00.008Z,-1.93
2023-01-12T21:49:28.324Z,-1.92
2023-01-12T21:51:57.181Z,-1.92
2023-01-12T21:54:26.285Z,-1.92
2023-01-12T21:56:54.585Z,-1.91
2023-01-12T21:59:22.991Z,-1.91
2023-01-12T22:01:51.732Z,-1.91
2023-01-12T22:04:20.394Z,-1.90
2023-01-12T22:06:52.667Z,-1.91
2023-01-12T22:09:21.337Z,-1.92
2023-01-12T22:11:49.690Z,-1.92
2023-01-12T22:14:18.214Z,-1.93
2023-01-12T22:16:46.630Z,-1.95
2023-01-12T22:19:15.036Z,-1.95
2023-01-12T22:21:44.430Z,-1.94
2023-01-12T22:24:12.875Z,-1.94
2023-01-12T22:26:41.870Z,-1.94
2023-01-12T22:29:10.421Z,-1.94
2023-01-12T22:31:39.224Z,-1.96
2023-01-12T22:34:08.420Z,-1.98
2023-01-12T22:36:43.115Z,-2.00
2023-01-12T22:39:12.505Z,-2.02
2023-01-12T22:41:41.302Z,-2.03
2023-01-12T22:44:09.758Z,-2.03
2023-01-12T22:46:38.692Z,-2.04
2023-01-12T22:49:07.513Z,-2.04
2023-01-12T22:51:36.362Z,-2.02
2023-01-12T22:54:08.707Z,-2.00
2023-01-12T22:56:41.022Z,-1.99
2023-01-12T22:59:09.999Z,-1.99
2023-01-12T23:01:39.006Z,-1.99
2023-01-12T23:04:13.622Z,-1.99
2023-01-12T23:06:42.036Z,-1.99
2023-01-12T23:09:12.023Z,-1.98
2023-01-12T23:11:40.515Z,-1.98
2023-01-12T23:14:09.055Z,-1.98
2023-01-12T23:16:37.490Z,-1.98
2023-01-12T23:19:05.721Z,-1.98
2023-01-12T23:21:35.861Z,-1.99
2023-01-12T23:24:05.402Z,-2.00
2023-01-12T23:26:45.663Z,-2.00
2023-01-12T23:29:16.357Z,-1.99
2023-01-12T23:31:44.643Z,-2.01
2023-01-12T23:34:13.708Z,-2.02
2023-01-12T23:36:42.452Z,-2.02
2023-01-12T23:39:12.510Z,-2.03
2023-01-12T23:41:40.740Z,-2.03
2023-01-12T23:44:10.236Z,-2.03
2023-01-12T23:46:43.913Z,-2.03
2023-01-12T23:49:12.242Z,-2.03
2023-01-12T23:51:40.690Z,-2.03
2023-01-12T23:54:13.339Z,-2.03
2023-01-12T23:56:46.315Z,-2.03
2023-01-12T23:59:15.783Z,-2.04
